createdAt,value
2023-08-11T00:02:06.724Z,20.20
2023-08-11T00:04:30.626Z,20.20
2023-08-11T00:06:55.464Z,20.30
2023-08-11T00:09:20.747Z,20.20
2023-08-11T00:11:46.024Z,20.20
2023-08-11T00:14:10.060Z,20.10
2023-08-11T00:16:33.850Z,20.00
2023-08-11T00:29:50.753Z,19.80
2023-08-11T00:32:14.772Z,19.70
2023-08-11T00:34:39.106Z,19.60
2023-08-11T00:37:03.116Z,19.60
2023-08-11T00:39:26.952Z,19.50
2023-08-11T00:41:51.546Z,19.50
2023-08-11T00:44:15.454Z,19.50
2023-08-11T00:46:43.462Z,19.40
2023-08-11T00:49:07.808Z,19.40
2023-08-11T00:51:32.770Z,19.30
2023-08-11T00:53:58.484Z,19.30
2023-08-11T00:56:24.468Z,19.20
2023-08-11T00:58:49.002Z,19.20
2023-08-11T01:01:12.987Z,19.30
2023-08-11T01:03:38.284Z,19.30
2023-08-11T01:06:14.230Z,19.20
2023-08-11T01:08:45.146Z,19.20
2023-08-11T01:11:17.380Z,19.10
2023-08-11T01:13:48.084Z,19.20
2023-08-11T01:16:15.370Z,19.20
2023-08-11T01:18:42.421Z,19.20
2023-08-11T01:21:14.006Z,19.20
2023-08-11T01:23:39.927Z,19.20
2023-08-11T01:26:03.974Z,19.10
2023-08-11T01:28:29.016Z,19.10
2023-08-11T01:30:52.845Z,19.20
2023-08-11T01:33:16.984Z,19.20
2023-08-11T01:35:42.600Z,19.10
2023-08-11T01:38:07.121Z,19.10
2023-08-11T01:40:34.337Z,19.10
2023-08-11T01:43:03.299Z,19.00
2023-08-11T01:45:29.310Z,19.00
2023-08-11T01:47:54.690Z,19.00
2023-08-11T01:50:20.389Z,18.90
2023-08-11T01:52:47.031Z,18.90
2023-08-11T01:55:12.060Z,18.90
2023-08-11T01:57:44.964Z,18.90
2023-08-11T02:00:17.568Z,18.80
2023-08-11T02:02:44.151Z,18.80
2023-08-11T02:05:10.518Z,18.70
2023-08-11T02:07:34.326Z,18.60
2023-08-11T02:09:58.191Z,18.60
2023-08-11T02:12:22.103Z,18.50
2023-08-11T02:14:47.353Z,18.60
2023-08-11T02:17:11.034Z,18.40
2023-08-11T02:19:35.221Z,18.40
2023-08-11T02:21:59.017Z,18.40
2023-08-11T02:24:22.867Z,18.30
2023-08-11T02:26:48.165Z,18.40
2023-08-11T02:29:12.156Z,18.20
2023-08-11T02:31:37.319Z,18.20
2023-08-11T02:34:01.694Z,18.20
2023-08-11T02:36:25.547Z,18.20
2023-08-11T02:38:49.422Z,18.20
2023-08-11T02:41:13.784Z,18.00
2023-08-11T02:43:38.574Z,17.90
2023-08-11T02:46:02.498Z,18.00
2023-08-11T02:48:27.760Z,18.00
2023-08-11T02:50:51.512Z,17.90
2023-08-11T02:53:15.556Z,17.90
2023-08-11T02:55:39.326Z,17.90
2023-08-11T02:58:03.300Z,17.80
2023-08-11T03:00:27.256Z,17.90
2023-08-11T03:02:51.265Z,17.80
2023-08-11T03:05:18.082Z,17.70
2023-08-11T03:07:45.943Z,17.70
2023-08-11T03:10:11.497Z,17.60
2023-08-11T03:12:38.340Z,17.50
2023-08-11T03:15:05.651Z,17.50
2023-08-11T03:17:29.850Z,17.50
2023-08-11T03:19:54.094Z,17.40
2023-08-11T03:22:20.953Z,17.30
2023-08-11T03:24:45.997Z,17.40
2023-08-11T03:27:10.584Z,17.40
2023-08-11T03:29:34.542Z,17.40
2023-08-11T03:31:58.871Z,17.40
2023-08-11T03:34:24.898Z,17.40
2023-08-11T03:36:48.652Z,17.40
2023-08-11T03:39:13.879Z,17.40
2023-08-11T03:41:38.513Z,17.40
2023-08-11T03:44:03.660Z,17.40
2023-08-11T03:46:28.934Z,17.50
2023-08-11T03:48:53.766Z,17.50
2023-08-11T03:51:18.008Z,17.60
2023-08-11T03:53:41.979Z,17.70
2023-08-11T03:56:08.871Z,17.70
2023-08-11T03:58:39.148Z,17.80
2023-08-11T04:01:03.629Z,17.90
2023-08-11T04:03:29.567Z,18.00
2023-08-11T04:05:53.876Z,18.30
2023-08-11T04:08:18.143Z,18.50
2023-08-11T04:10:42.348Z,18.70
2023-08-11T04:13:07.494Z,19.20
2023-08-11T04:15:32.480Z,19.60
2023-08-11T04:17:56.327Z,20.00
2023-08-11T04:20:20.239Z,20.40
2023-08-11T04:22:44.137Z,20.50
2023-08-11T04:25:10.368Z,20.30
2023-08-11T04:27:37.372Z,20.20
2023-08-11T04:30:03.496Z,20.10
2023-08-11T04:32:30.846Z,20.00
2023-08-11T04:34:54.613Z,20.00
2023-08-11T04:37:20.493Z,20.10
2023-08-11T04:39:44.545Z,19.90
2023-08-11T04:42:10.028Z,19.90
2023-08-11T04:44:34.293Z,19.90
2023-08-11T04:47:00.026Z,19.80
2023-08-11T04:49:23.974Z,19.90
2023-08-11T04:51:48.088Z,19.80
2023-08-11T04:54:12.867Z,19.80
2023-08-11T04:56:36.845Z,19.80
2023-08-11T04:59:02.065Z,19.90
2023-08-11T05:01:26.112Z,20.00
2023-08-11T05:03:52.329Z,20.20
2023-08-11T05:06:16.230Z,20.30
2023-08-11T05:08:40.057Z,20.40
2023-08-11T05:11:04.429Z,20.50
2023-08-11T05:13:28.324Z,20.60
2023-08-11T05:15:52.211Z,20.80
2023-08-11T05:18:16.139Z,20.90
2023-08-11T05:20:41.628Z,21.10
2023-08-11T05:23:06.443Z,21.20
2023-08-11T05:25:30.291Z,21.40
2023-08-11T05:27:54.090Z,21.60
2023-08-11T05:30:18.442Z,21.90
2023-08-11T05:32:42.366Z,22.20
2023-08-11T05:35:06.926Z,22.40
2023-08-11T05:37:32.530Z,23.40
2023-08-11T05:39:56.471Z,24.20
2023-08-11T05:42:20.455Z,24.90
2023-08-11T05:44:44.363Z,25.20
2023-08-11T05:47:09.585Z,26.00
2023-08-11T05:49:33.526Z,26.50
2023-08-11T05:51:57.866Z,27.00
2023-08-11T05:54:23.854Z,26.90
2023-08-11T05:56:47.937Z,27.10
2023-08-11T05:59:11.702Z,27.60
2023-08-11T06:01:36.048Z,28.30
2023-08-11T06:03:59.857Z,28.80
2023-08-11T06:06:23.642Z,28.70
2023-08-11T06:08:47.821Z,29.00
2023-08-11T06:11:13.126Z,29.30
2023-08-11T06:13:37.244Z,29.60
2023-08-11T06:16:01.153Z,29.40
2023-08-11T06:18:25.063Z,29.00
2023-08-11T06:20:49.568Z,28.80
2023-08-11T06:23:14.022Z,28.90
2023-08-11T06:25:38.301Z,29.40
2023-08-11T06:28:03.951Z,30.80
2023-08-11T06:30:30.176Z,32.30
2023-08-11T06:32:54.071Z,32.30
2023-08-11T06:35:18.317Z,32.70
2023-08-11T06:37:42.170Z,33.30
2023-08-11T06:40:07.555Z,34.00
2023-08-11T06:42:31.299Z,35.40
2023-08-11T06:45:06.442Z,36.30
2023-08-11T06:47:30.442Z,37.20
2023-08-11T06:49:54.358Z,37.90
2023-08-11T06:52:18.168Z,38.50
2023-08-11T06:54:42.056Z,38.80
2023-08-11T06:57:06.252Z,39.10
2023-08-11T06:59:30.108Z,39.20
2023-08-11T07:01:55.381Z,39.30
2023-08-11T07:04:19.252Z,38.60
2023-08-11T07:06:43.054Z,38.60
2023-08-11T07:09:07.581Z,38.20
2023-08-11T07:11:31.449Z,37.50
2023-08-11T07:13:55.154Z,36.10
2023-08-11T07:16:19.071Z,35.80
2023-08-11T07:18:44.300Z,36.20
2023-08-11T07:21:08.032Z,36.70
2023-08-11T07:23:31.715Z,37.70
2023-08-11T07:25:55.735Z,36.30
2023-08-11T07:28:19.565Z,36.90
2023-08-11T07:30:43.544Z,38.00
2023-08-11T07:33:07.446Z,38.30
2023-08-11T07:35:32.731Z,38.70
2023-08-11T07:37:56.677Z,39.90
2023-08-11T07:40:20.554Z,40.40
2023-08-11T07:42:44.615Z,40.90
2023-08-11T07:45:09.724Z,39.30
2023-08-11T07:47:33.688Z,37.20
2023-08-11T07:49:58.296Z,37.10
2023-08-11T07:52:23.711Z,38.60
2023-08-11T07:54:47.583Z,39.40
2023-08-11T07:57:11.958Z,39.70
2023-08-11T07:59:35.825Z,37.50
2023-08-11T08:02:00.623Z,38.20
2023-08-11T08:04:24.572Z,38.30
2023-08-11T08:06:48.517Z,37.90
2023-08-11T08:09:15.143Z,38.20
2023-08-11T08:11:39.288Z,37.70
2023-08-11T08:14:03.070Z,37.90
2023-08-11T08:16:26.950Z,37.50
2023-08-11T08:18:50.758Z,36.80
2023-08-11T08:21:14.672Z,36.70
2023-08-11T08:23:38.488Z,35.40
2023-08-11T08:26:04.526Z,33.90
2023-08-11T08:28:28.471Z,33.20
2023-08-11T08:30:52.405Z,32.80
2023-08-11T08:33:16.218Z,33.00
2023-08-11T08:35:40.125Z,32.40
2023-08-11T08:38:04.104Z,31.20
2023-08-11T08:40:28.903Z,31.10
2023-08-11T08:42:54.275Z,31.20
2023-08-11T08:45:19.116Z,31.50
2023-08-11T08:47:45.374Z,31.80
2023-08-11T08:50:10.324Z,31.60
2023-08-11T08:52:35.392Z,31.40
2023-08-11T08:55:01.420Z,30.80
2023-08-11T08:57:27.631Z,30.90
2023-08-11T08:59:52.832Z,30.60
2023-08-11T09:02:16.981Z,30.60
2023-08-11T09:04:42.045Z,30.60
2023-08-11T09:07:06.771Z,30.40
2023-08-11T09:09:31.398Z,30.10
2023-08-11T09:11:55.402Z,29.60
2023-08-11T09:14:23.161Z,29.70
2023-08-11T09:16:48.538Z,29.90
2023-08-11T09:19:14.715Z,30.00
2023-08-11T09:21:38.716Z,29.90
2023-08-11T09:24:02.728Z,29.80
2023-08-11T09:26:26.842Z,29.80
2023-08-11T09:28:51.544Z,29.30
2023-08-11T09:31:15.973Z,29.00
2023-08-11T09:33:41.140Z,28.80
2023-08-11T09:36:05.097Z,28.40
2023-08-11T09:38:28.961Z,28.50
2023-08-11T09:40:52.629Z,28.40
2023-08-11T09:43:16.550Z,28.60
2023-08-11T09:45:40.381Z,28.50
2023-08-11T09:48:04.422Z,28.80
2023-08-11T09:50:30.213Z,29.30
2023-08-11T09:52:54.810Z,29.60
2023-08-11T09:55:20.356Z,30.00
2023-08-11T09:57:46.240Z,30.00
2023-08-11T10:00:12.962Z,29.90
2023-08-11T10:02:39.081Z,29.80
2023-08-11T10:05:06.029Z,29.90
2023-08-11T10:07:36.687Z,29.70
2023-08-11T10:10:03.171Z,29.70
2023-08-11T10:12:27.553Z,29.80
2023-08-11T10:14:52.095Z,29.80
2023-08-11T10:17:16.017Z,30.00
2023-08-11T10:19:40.191Z,30.40
2023-08-11T10:22:04.815Z,30.70
2023-08-11T10:24:30.295Z,30.50
2023-08-11T10:26:54.437Z,30.20
2023-08-11T10:29:18.970Z,30.50
2023-08-11T10:31:56.560Z,30.70
2023-08-11T10:34:24.237Z,30.50
2023-08-11T10:36:48.254Z,29.90
2023-08-11T10:39:12.126Z,29.90
2023-08-11T10:41:37.289Z,29.90
2023-08-11T10:44:01.752Z,29.90
2023-08-11T10:46:28.341Z,29.90
2023-08-11T10:48:53.290Z,29.80
2023-08-11T10:51:31.790Z,29.70
2023-08-11T10:53:57.921Z,29.70
2023-08-11T10:56:30.347Z,29.90
2023-08-11T10:59:07.316Z,30.00
2023-08-11T11:01:31.401Z,30.00
2023-08-11T11:03:56.928Z,30.00
2023-08-11T11:06:22.417Z,30.00
2023-08-11T11:08:46.496Z,29.80
2023-08-11T11:11:13.008Z,29.50
2023-08-11T11:13:36.772Z,29.60
2023-08-11T11:16:02.058Z,29.60
2023-08-11T11:18:25.919Z,29.70
2023-08-11T11:20:49.829Z,29.80
2023-08-11T11:23:14.164Z,29.90
2023-08-11T11:25:38.094Z,29.90
2023-08-11T11:28:01.933Z,30.10
2023-08-11T11:30:25.878Z,30.30
2023-08-11T11:32:51.210Z,30.30
2023-08-11T11:35:14.942Z,30.30
2023-08-11T11:37:39.172Z,30.30
2023-08-11T11:40:05.337Z,30.30
2023-08-11T11:42:31.242Z,30.10
2023-08-11T11:44:55.179Z,29.80
2023-08-11T11:47:19.567Z,29.50
2023-08-11T11:49:45.417Z,29.40
2023-08-11T11:52:10.182Z,29.20
2023-08-11T11:54:35.217Z,29.20
2023-08-11T11:57:04.991Z,29.20
2023-08-11T11:59:30.894Z,29.20
2023-08-11T12:01:54.838Z,29.10
2023-08-11T12:04:18.886Z,29.10
2023-08-11T12:06:44.248Z,29.20
2023-08-11T12:09:11.148Z,29.20
2023-08-11T12:11:34.984Z,29.20
2023-08-11T12:14:01.038Z,29.00
2023-08-11T12:16:24.862Z,29.00
2023-08-11T12:18:49.716Z,28.90
2023-08-11T12:21:13.635Z,28.70
2023-08-11T12:23:39.515Z,28.70
2023-08-11T12:26:03.585Z,28.60
2023-08-11T12:28:27.644Z,28.50
2023-08-11T12:30:51.481Z,28.30
2023-08-11T12:33:16.315Z,28.20
2023-08-11T12:35:40.155Z,27.90
2023-08-11T12:38:05.578Z,27.70
2023-08-11T12:40:31.462Z,27.80
2023-08-11T12:42:56.022Z,27.60
2023-08-11T12:45:19.889Z,27.50
2023-08-11T12:47:43.818Z,27.50
2023-08-11T12:50:09.857Z,27.40
2023-08-11T12:52:33.816Z,27.30
2023-08-11T12:54:57.590Z,27.30
2023-08-11T12:57:22.886Z,27.30
2023-08-11T12:59:46.698Z,27.20
2023-08-11T13:02:10.611Z,27.20
2023-08-11T13:04:34.498Z,27.20
2023-08-11T13:07:00.788Z,27.20
2023-08-11T13:09:25.471Z,27.20
2023-08-11T13:11:49.485Z,27.20
2023-08-11T13:14:14.959Z,27.30
2023-08-11T13:16:38.892Z,27.30
2023-08-11T13:19:02.849Z,27.40
2023-08-11T13:21:26.633Z,27.40
2023-08-11T13:23:50.560Z,27.40
2023-08-11T13:26:14.736Z,27.50
2023-08-11T13:28:38.526Z,27.60
2023-08-11T13:31:04.086Z,27.60
2023-08-11T13:33:28.339Z,27.70
2023-08-11T13:35:52.095Z,27.70
2023-08-11T13:38:16.161Z,27.80
2023-08-11T13:40:40.056Z,27.90
2023-08-11T13:43:05.291Z,27.80
2023-08-11T13:45:29.285Z,27.80
2023-08-11T13:47:54.727Z,27.90
2023-08-11T13:50:18.578Z,28.10
2023-08-11T13:52:42.351Z,28.30
2023-08-11T13:55:10.185Z,28.20
2023-08-11T13:57:34.592Z,28.30
2023-08-11T14:00:00.530Z,28.40
2023-08-11T14:02:24.529Z,28.30
2023-08-11T14:04:49.861Z,28.30
2023-08-11T14:07:28.500Z,28.30
2023-08-11T14:09:54.711Z,28.30
2023-08-11T14:12:18.913Z,28.30
2023-08-11T14:14:42.864Z,28.20
2023-08-11T14:17:06.787Z,28.30
2023-08-11T14:19:30.586Z,28.20
2023-08-11T14:21:55.781Z,28.20
2023-08-11T14:24:19.738Z,28.10
2023-08-11T14:26:43.486Z,28.00
2023-08-11T14:29:07.362Z,27.90
2023-08-11T14:31:31.201Z,27.80
2023-08-11T14:33:55.166Z,27.80
2023-08-11T14:36:19.083Z,27.80
2023-08-11T14:38:44.264Z,27.90
2023-08-11T14:41:08.661Z,27.90
2023-08-11T14:43:32.450Z,28.00
2023-08-11T14:45:56.567Z,28.00
2023-08-11T14:48:20.563Z,28.10
2023-08-11T14:50:44.243Z,28.20
2023-08-11T14:53:08.013Z,28.20
2023-08-11T14:55:33.258Z,28.30
2023-08-11T14:57:57.124Z,28.30
2023-08-11T15:00:21.051Z,28.40
2023-08-11T15:02:44.870Z,28.40
2023-08-11T15:05:09.572Z,28.40
2023-08-11T15:07:33.458Z,28.40
2023-08-11T15:09:57.281Z,28.40
2023-08-11T15:12:23.578Z,28.30
2023-08-11T15:14:47.427Z,28.40
2023-08-11T15:17:11.700Z,28.40
2023-08-11T15:19:35.542Z,28.40
2023-08-11T15:21:59.638Z,28.40
2023-08-11T15:24:23.485Z,28.40
2023-08-11T15:26:47.554Z,28.50
2023-08-11T15:29:12.661Z,28.50
2023-08-11T15:31:36.512Z,28.50
2023-08-11T15:34:00.477Z,28.50
2023-08-11T15:36:24.695Z,28.50
2023-08-11T15:38:48.925Z,28.50
2023-08-11T15:41:13.526Z,28.50
2023-08-11T15:43:37.449Z,28.50
2023-08-11T15:46:03.448Z,28.50
2023-08-11T15:48:28.608Z,28.50
2023-08-11T15:50:52.465Z,28.40
2023-08-11T15:53:16.290Z,28.40
2023-08-11T15:55:40.153Z,28.40
2023-08-11T15:58:04.477Z,28.20
2023-08-11T16:00:28.506Z,28.20
2023-08-11T16:02:53.818Z,28.20
2023-08-11T16:05:17.636Z,28.10
2023-08-11T16:07:41.435Z,28.10
2023-08-11T16:10:05.556Z,28.00
2023-08-11T16:12:29.364Z,28.00
2023-08-11T16:14:53.283Z,27.90
2023-08-11T16:17:17.073Z,27.90
2023-08-11T16:19:42.264Z,27.90
2023-08-11T16:22:06.183Z,27.90
2023-08-11T16:24:30.087Z,27.90
2023-08-11T16:26:53.879Z,27.80
2023-08-11T16:29:17.764Z,27.80
2023-08-11T16:31:41.671Z,27.80
2023-08-11T16:34:05.629Z,27.70
2023-08-11T16:36:30.743Z,27.80
2023-08-11T16:38:54.615Z,27.80
2023-08-11T16:41:18.434Z,27.70
2023-08-11T16:43:42.483Z,27.70
2023-08-11T16:46:06.278Z,27.70
2023-08-11T16:48:30.100Z,27.70
2023-08-11T16:50:53.776Z,27.70
2023-08-11T16:53:19.052Z,27.70
2023-08-11T16:55:42.944Z,27.60
2023-08-11T16:58:06.932Z,27.50
2023-08-11T17:00:30.776Z,27.40
2023-08-11T17:02:54.651Z,27.40
2023-08-11T17:05:18.547Z,27.30
2023-08-11T17:07:43.142Z,27.30
2023-08-11T17:10:09.576Z,27.10
2023-08-11T17:12:33.519Z,27.10
2023-08-11T17:14:57.327Z,27.00
2023-08-11T17:17:21.465Z,26.90
2023-08-11T17:19:45.294Z,26.90
2023-08-11T17:22:11.886Z,26.80
2023-08-11T17:24:35.893Z,26.70
2023-08-11T17:27:02.348Z,26.60
2023-08-11T17:29:26.348Z,26.40
2023-08-11T17:31:50.316Z,26.40
2023-08-11T17:34:14.135Z,26.30
2023-08-11T17:36:37.974Z,26.10
2023-08-11T17:39:01.823Z,26.00
2023-08-11T17:41:26.386Z,25.80
2023-08-11T17:43:51.849Z,25.70
2023-08-11T17:46:15.982Z,25.50
2023-08-11T17:48:40.051Z,25.50
2023-08-11T17:51:05.350Z,25.30
2023-08-11T17:53:29.479Z,25.10
2023-08-11T17:55:53.567Z,25.00
2023-08-11T17:58:17.456Z,24.90
2023-08-11T18:00:43.405Z,24.80
2023-08-11T18:03:07.505Z,24.80
2023-08-11T18:05:31.557Z,24.60
2023-08-11T18:07:55.665Z,24.50
2023-08-11T18:10:19.881Z,24.50
2023-08-11T18:12:43.836Z,24.40
2023-08-11T18:15:09.123Z,24.40
2023-08-11T18:17:34.543Z,24.30
2023-08-11T18:19:58.440Z,24.20
2023-08-11T18:22:22.924Z,24.20
2023-08-11T18:24:47.143Z,24.20
2023-08-11T18:27:11.077Z,24.10
2023-08-11T18:29:36.050Z,24.00
2023-08-11T18:32:00.067Z,23.90
2023-08-11T18:34:25.607Z,23.90
2023-08-11T18:36:49.484Z,23.80
2023-08-11T18:39:13.337Z,23.80
2023-08-11T18:41:37.161Z,23.80
2023-08-11T18:44:00.995Z,23.80
2023-08-11T18:46:24.703Z,23.70
2023-08-11T18:48:50.052Z,23.60
2023-08-11T18:51:15.260Z,23.60
2023-08-11T18:53:39.198Z,23.50
2023-08-11T18:56:03.020Z,23.50
2023-08-11T18:58:27.344Z,23.40
2023-08-11T19:00:51.207Z,23.40
2023-08-11T19:03:15.271Z,23.40
2023-08-11T19:05:41.610Z,23.30
2023-08-11T19:08:09.635Z,23.30
2023-08-11T19:10:33.562Z,23.20
2023-08-11T19:12:57.891Z,23.30
2023-08-11T19:15:22.020Z,23.30
2023-08-11T19:17:46.265Z,23.20
2023-08-11T19:20:12.054Z,23.20
2023-08-11T19:22:36.714Z,23.20
2023-08-11T19:25:02.020Z,23.10
2023-08-11T19:27:28.624Z,23.20
2023-08-11T19:29:52.663Z,23.10
2023-08-11T19:32:17.582Z,23.10
2023-08-11T19:34:49.042Z,23.10
2023-08-11T19:37:14.397Z,23.20
2023-08-11T19:39:38.516Z,23.20
2023-08-11T19:42:04.214Z,23.20
2023-08-11T19:44:28.222Z,23.20
2023-08-11T19:46:52.174Z,23.30
2023-08-11T19:49:16.380Z,23.30
2023-08-11T19:51:41.823Z,23.30
2023-08-11T19:54:06.002Z,23.30
2023-08-11T19:56:30.134Z,23.30
2023-08-11T19:58:55.572Z,23.40
2023-08-11T20:01:19.635Z,23.40
2023-08-11T20:03:43.550Z,23.50
2023-08-11T20:06:07.867Z,23.50
2023-08-11T20:08:31.904Z,23.40
2023-08-11T20:10:56.387Z,23.50
2023-08-11T20:13:20.516Z,23.40
2023-08-11T20:15:47.977Z,23.50
2023-08-11T20:18:11.931Z,23.50
2023-08-11T20:20:36.742Z,23.50
2023-08-11T20:23:00.893Z,23.50
2023-08-11T20:25:27.309Z,23.50
2023-08-11T20:27:53.493Z,23.50
2023-08-11T20:30:17.797Z,23.50
2023-08-11T20:32:43.250Z,23.40
2023-08-11T20:35:09.238Z,23.40
2023-08-11T20:37:33.371Z,23.40
2023-08-11T20:39:57.506Z,23.30
2023-08-11T20:42:21.623Z,23.30
2023-08-11T20:44:46.088Z,23.30
2023-08-11T20:47:10.345Z,23.30
2023-08-11T20:49:35.963Z,23.20
2023-08-11T20:52:01.723Z,23.20
2023-08-11T20:54:25.632Z,23.20
2023-08-11T20:56:49.414Z,23.20
2023-08-11T20:59:13.519Z,23.10
2023-08-11T21:01:37.480Z,23.10
2023-08-11T21:04:01.837Z,23.10
2023-08-11T21:06:27.280Z,23.10
2023-08-11T21:08:52.763Z,23.10
2023-08-11T21:11:17.076Z,23.10
2023-08-11T21:13:41.067Z,23.10
2023-08-11T21:16:05.146Z,23.10
2023-08-11T21:18:29.095Z,23.10
2023-08-11T21:20:53.256Z,23.00
2023-08-11T21:23:20.449Z,23.00
2023-08-11T21:25:44.675Z,23.00
2023-08-11T21:28:08.610Z,23.00
2023-08-11T21:30:34.690Z,23.00
2023-08-11T21:32:58.636Z,23.00
2023-08-11T21:35:23.027Z,23.00
2023-08-11T21:37:47.073Z,23.00
2023-08-11T21:40:12.874Z,23.00
2023-08-11T21:42:37.024Z,22.90
2023-08-11T21:45:00.951Z,22.90
2023-08-11T21:47:24.920Z,22.90
2023-08-11T21:49:48.922Z,22.90
2023-08-11T21:52:12.864Z,22.80
2023-08-11T21:54:36.839Z,22.80
2023-08-11T21:57:02.327Z,22.80
2023-08-11T21:59:26.426Z,22.80
2023-08-11T22:01:51.358Z,22.80
2023-08-11T22:04:15.569Z,22.80
2023-08-11T22:06:39.490Z,22.80
2023-08-11T22:09:03.631Z,22.80
2023-08-11T22:13:59.697Z,22.80
2023-08-11T22:16:24.171Z,22.80
2023-08-11T22:18:48.220Z,22.80
2023-08-11T22:21:12.178Z,22.70
2023-08-11T22:23:36.208Z,22.70
2023-08-11T22:26:00.148Z,22.70
2023-08-11T22:28:24.104Z,22.60
2023-08-11T22:30:51.420Z,22.60
2023-08-11T22:33:15.670Z,22.50
2023-08-11T22:35:41.635Z,22.40
2023-08-11T22:38:06.093Z,22.40
2023-08-11T22:40:30.070Z,22.40
2023-08-11T22:42:54.041Z,22.30
2023-08-11T22:45:18.281Z,22.30
2023-08-11T22:47:43.892Z,22.30
2023-08-11T22:50:10.514Z,22.20
2023-08-11T22:52:34.503Z,22.20
2023-08-11T22:54:58.473Z,22.20
2023-08-11T22:57:22.740Z,22.20
2023-08-11T22:59:46.916Z,22.20
2023-08-11T23:02:10.925Z,22.20
2023-08-11T23:04:36.374Z,22.20
2023-08-11T23:07:00.262Z,22.20
2023-08-11T23:09:24.175Z,22.20
2023-08-11T23:11:48.256Z,22.20
2023-08-11T23:14:12.194Z,22.10
2023-08-11T23:16:36.391Z,22.10
2023-08-11T23:19:00.285Z,22.10
2023-08-11T23:21:25.801Z,22.10
2023-08-11T23:23:49.777Z,22.10
2023-08-11T23:26:14.138Z,22.10
2023-08-11T23:28:38.222Z,22.10
2023-08-11T23:31:02.342Z,22.10
2023-08-11T23:33:26.339Z,22.10
2023-08-11T23:35:50.341Z,22.00
2023-08-11T23:38:16.284Z,21.90
2023-08-11T23:40:40.469Z,21.90
2023-08-11T23:43:05.145Z,22.00
2023-08-11T23:45:29.308Z,22.00
2023-08-11T23:47:53.324Z,22.00
2023-08-11T23:50:17.616Z,22.00
2023-08-11T23:52:41.745Z,21.90
2023-08-11T23:55:09.525Z,21.90
2023-08-11T23:57:35.429Z,21.90
2023-08-11T23:59:59.452Z,21.90
